Time;durP1;ratioP1;P1;durP2;ratioP2;P2;SDS_P1;SDS_P2;PMS_P1;PMS_P2;Temp;Humidity;BMP_temperature;BMP_pressure;BME280_temperature;BME280_humidity;BME280_pressure;Samples;Min_cycle;Max_cycle;Signal;HPM_P1;HPM_P2
2021/01/09 00:00:50;;;;;;;7.90;3.40;;;-1.70;99.90;;;;;;5023809;28;20057;-48
2021/01/09 00:03:17;;;;;;;3.83;2.08;;;-1.80;99.90;;;;;;5018276;28;20473;-48
2021/01/09 00:05:44;;;;;;;4.32;1.98;;;-1.70;99.90;;;;;;5018412;28;20407;-49
2021/01/09 00:08:11;;;;;;;6.55;1.25;;;-1.70;99.90;;;;;;5023926;28;20049;-48
2021/01/09 00:10:38;;;;;;;6.45;2.13;;;-1.60;99.90;;;;;;5014456;28;20050;-48
2021/01/09 00:13:05;;;;;;;3.53;1.58;;;-1.60;99.90;;;;;;5027532;28;20049;-48
2021/01/09 00:15:32;;;;;;;13.88;3.58;;;-1.60;99.90;;;;;;5030125;28;20388;-48
2021/01/09 00:17:59;;;;;;;13.43;3.70;;;-1.60;99.90;;;;;;5030374;28;20051;-48
2021/01/09 00:20:26;;;;;;;37.53;8.48;;;-1.50;99.90;;;;;;5029099;28;20088;-49
2021/01/09 00:22:52;;;;;;;5.53;2.33;;;-1.60;99.90;;;;;;5024453;28;20502;-48
2021/01/09 00:25:20;;;;;;;10.95;3.72;;;-1.60;99.90;;;;;;5029774;28;20050;-49
2021/01/09 00:27:46;;;;;;;5.68;3.17;;;-1.70;99.90;;;;;;5031112;28;20053;-48
2021/01/09 00:30:13;;;;;;;4.95;2.05;;;-1.60;99.90;;;;;;5028893;28;20056;-48
2021/01/09 00:32:40;;;;;;;4.63;1.63;;;-1.60;99.90;;;;;;5029465;28;20061;-48
2021/01/09 00:35:08;;;;;;;6.70;2.40;;;-1.60;99.90;;;;;;5028535;28;20379;-48
2021/01/09 00:37:34;;;;;;;4.78;2.55;;;-1.60;99.90;;;;;;5023130;28;20046;-48
2021/01/09 00:40:02;;;;;;;4.35;1.80;;;-1.60;99.90;;;;;;5029615;28;20049;-49
2021/01/09 00:42:29;;;;;;;5.15;2.05;;;-1.60;99.90;;;;;;5029694;28;20052;-48
2021/01/09 00:44:56;;;;;;;2.38;1.27;;;-1.70;99.90;;;;;;5015128;28;20046;-48
2021/01/09 00:47:22;;;;;;;3.63;1.88;;;-1.60;99.90;;;;;;5027223;28;20376;-48
2021/01/09 00:49:49;;;;;;;3.08;1.48;;;-1.60;99.90;;;;;;5028627;28;20053;-48
2021/01/09 00:52:16;;;;;;;4.50;1.10;;;-1.60;99.90;;;;;;5024007;28;20617;-48
2021/01/09 00:54:42;;;;;;;2.50;0.90;;;-1.60;99.90;;;;;;5019145;28;20069;-48
2021/01/09 00:57:08;;;;;;;1.75;0.90;;;-1.60;99.90;;;;;;5029429;28;20084;-48
2021/01/09 00:59:35;;;;;;;3.15;1.10;;;-1.60;99.90;;;;;;5028951;28;20049;-48
2021/01/09 01:02:01;;;;;;;2.67;0.80;;;-1.60;99.90;;;;;;5016927;28;20403;-48
2021/01/09 01:04:28;;;;;;;1.92;0.70;;;-1.50;99.90;;;;;;5025671;28;20517;-48
2021/01/09 01:06:55;;;;;;;0.90;0.80;;;-1.50;99.90;;;;;;5028884;28;20136;-49
2021/01/09 01:09:22;;;;;;;2.42;1.25;;;-1.50;99.90;;;;;;5030425;28;20049;-48
2021/01/09 01:11:48;;;;;;;1.52;1.10;;;-1.50;99.90;;;;;;5023793;28;20059;-48
2021/01/09 01:14:15;;;;;;;4.53;1.20;;;-1.50;99.90;;;;;;5018999;28;20062;-48
2021/01/09 01:16:43;;;;;;;6.05;0.98;;;-1.60;99.90;;;;;;5020690;28;20053;-48
2021/01/09 01:19:12;;;;;;;3.33;1.00;;;-1.60;99.90;;;;;;5026728;28;20065;-48
2021/01/09 01:21:39;;;;;;;1.98;1.13;;;-1.60;99.90;;;;;;5027089;28;20077;-48
2021/01/09 01:24:06;;;;;;;2.28;1.15;;;-1.60;99.90;;;;;;5027857;28;20042;-49
2021/01/09 01:26:35;;;;;;;2.17;1.30;;;-1.60;99.90;;;;;;5029427;28;20042;-48
2021/01/09 01:29:03;;;;;;;8.48;2.05;;;-1.60;99.90;;;;;;5028659;28;20056;-48
2021/01/09 01:31:31;;;;;;;6.18;1.65;;;-1.60;99.90;;;;;;5018462;28;20050;-48
2021/01/09 01:33:57;;;;;;;3.42;1.30;;;-1.70;99.90;;;;;;5020493;28;20052;-48
2021/01/09 01:36:24;;;;;;;2.80;1.35;;;-1.70;99.90;;;;;;5024033;28;20049;-48
2021/01/09 01:38:51;;;;;;;3.13;1.65;;;-1.80;99.90;;;;;;5026877;28;20103;-48
2021/01/09 01:41:18;;;;;;;2.97;1.10;;;-1.80;99.90;;;;;;5027636;28;20077;-48
2021/01/09 01:43:44;;;;;;;2.55;0.82;;;-1.80;99.90;;;;;;5028555;28;20044;-48
2021/01/09 01:46:12;;;;;;;4.03;1.00;;;-1.80;99.90;;;;;;5027507;28;20049;-48
2021/01/09 01:48:39;;;;;;;4.15;1.58;;;-1.80;99.90;;;;;;5029993;28;20052;-48
2021/01/09 01:51:06;;;;;;;5.60;2.13;;;-1.80;99.90;;;;;;5026799;28;20060;-50
2021/01/09 01:53:33;;;;;;;4.25;1.50;;;-1.80;99.90;;;;;;5019373;28;20046;-48
2021/01/09 01:56:00;;;;;;;2.97;1.52;;;-1.90;99.90;;;;;;5027440;28;20053;-48
2021/01/09 01:58:26;;;;;;;3.53;1.67;;;-2.10;99.90;;;;;;5026119;28;20045;-48
2021/01/09 02:00:53;;;;;;;3.63;1.95;;;-2.10;99.90;;;;;;5026311;28;20498;-48
2021/01/09 02:03:21;;;;;;;3.20;1.95;;;-2.20;99.90;;;;;;5029812;28;20483;-49
2021/01/09 02:06:00;;;;;;;1.70;1.48;;;-2.30;99.90;;;;;;5027271;28;20080;-48
2021/01/09 02:09:01;;;;;;;8.00;2.85;;;-2.20;99.90;;;;;;5025357;28;20148;-49
2021/01/09 02:11:54;;;;;;;4.57;1.70;;;-2.20;99.90;;;;;;5007968;28;20251;-49
2021/01/09 02:14:41;;;;;;;2.22;1.65;;;-2.30;99.90;;;;;;5031875;28;20060;-48
2021/01/09 02:17:09;;;;;;;4.13;2.05;;;-2.30;99.90;;;;;;5026118;28;20048;-48
2021/01/09 02:19:40;;;;;;;10.75;3.65;;;-2.20;99.90;;;;;;5033489;28;20045;-48
2021/01/09 02:22:15;;;;;;;4.40;2.00;;;-2.30;99.90;;;;;;5029247;28;20052;-49
2021/01/09 02:24:43;;;;;;;4.47;1.88;;;-2.30;99.90;;;;;;5017203;28;20041;-48
2021/01/09 02:27:10;;;;;;;5.40;1.70;;;-2.20;99.90;;;;;;5027538;28;20053;-48
2021/01/09 02:30:00;;;;;;;3.50;2.85;;;-2.20;99.90;;;;;;5021804;28;20406;-48
2021/01/09 02:32:32;;;;;;;3.10;1.00;;;-2.20;99.90;;;;;;5016890;28;20061;-48
2021/01/09 02:35:00;;;;;;;2.28;0.90;;;-2.10;99.90;;;;;;5031079;28;20049;-48
2021/01/09 02:37:27;;;;;;;2.42;1.42;;;-2.10;99.90;;;;;;5030488;28;20060;-48
2021/01/09 02:39:54;;;;;;;2.75;1.45;;;-2.10;99.90;;;;;;5027885;28;20053;-49
2021/01/09 02:42:21;;;;;;;3.22;1.10;;;-2.10;99.90;;;;;;5019635;28;20736;-49
2021/01/09 02:44:50;;;;;;;2.15;1.00;;;-2.10;99.90;;;;;;5020493;28;20045;-50
2021/01/09 02:47:17;;;;;;;2.20;1.10;;;-2.20;99.90;;;;;;5030013;28;20046;-48
2021/01/09 02:49:45;;;;;;;3.08;0.82;;;-2.20;99.90;;;;;;5032840;28;20077;-48
2021/01/09 02:52:11;;;;;;;1.75;0.60;;;-2.30;99.90;;;;;;5029761;28;20060;-48
2021/01/09 02:54:38;;;;;;;1.73;0.90;;;-2.20;99.90;;;;;;5022491;28;20042;-48
2021/01/09 02:57:05;;;;;;;1.30;0.85;;;-2.10;99.90;;;;;;5025707;28;20139;-48
2021/01/09 02:59:32;;;;;;;1.17;0.93;;;-2.20;99.90;;;;;;5021238;28;20053;-48
2021/01/09 03:01:58;;;;;;;2.00;0.82;;;-2.10;99.90;;;;;;5021197;28;20068;-48
2021/01/09 03:04:25;;;;;;;3.28;0.60;;;-2.10;99.90;;;;;;5025051;28;20127;-48
2021/01/09 03:06:51;;;;;;;0.63;0.45;;;-2.00;99.90;;;;;;5032467;28;20398;-48
2021/01/09 03:09:18;;;;;;;1.65;0.50;;;-2.00;99.90;;;;;;5029737;28;20038;-48
2021/01/09 03:11:44;;;;;;;1.63;0.50;;;-1.90;99.90;;;;;;5030788;28;20049;-48
2021/01/09 03:14:10;;;;;;;0.60;0.52;;;-1.80;99.90;;;;;;5026480;28;20042;-48
2021/01/09 03:16:37;;;;;;;1.10;0.55;;;-1.70;99.90;;;;;;5018458;28;20057;-48
2021/01/09 03:19:04;;;;;;;0.85;0.60;;;-1.80;99.90;;;;;;5031765;28;20053;-48
2021/01/09 03:21:30;;;;;;;2.75;0.60;;;-1.80;99.90;;;;;;5028732;28;20061;-48
2021/01/09 03:23:57;;;;;;;0.70;0.47;;;-1.80;99.90;;;;;;5020705;28;20857;-48
2021/01/09 03:26:23;;;;;;;2.25;0.70;;;-1.60;99.90;;;;;;5029480;28;20479;-48
2021/01/09 03:28:50;;;;;;;1.17;0.40;;;-1.60;99.90;;;;;;5022806;28;20053;-48
2021/01/09 03:31:17;;;;;;;1.52;0.50;;;-1.60;99.90;;;;;;5026833;28;20395;-48
2021/01/09 03:33:44;;;;;;;0.75;0.60;;;-1.70;99.90;;;;;;5019246;28;20402;-48
2021/01/09 03:36:10;;;;;;;1.38;0.60;;;-1.80;99.90;;;;;;5021856;28;20176;-50
2021/01/09 03:38:38;;;;;;;1.48;0.70;;;-1.80;99.90;;;;;;5024069;28;20049;-49
2021/01/09 03:41:05;;;;;;;2.80;0.63;;;-2.00;99.90;;;;;;5025868;28;20041;-48
2021/01/09 03:43:31;;;;;;;2.45;0.90;;;-2.00;99.90;;;;;;5029232;28;20041;-49
2021/01/09 03:45:58;;;;;;;0.90;0.60;;;-2.00;99.90;;;;;;5018622;28;20439;-48
2021/01/09 03:48:25;;;;;;;0.98;0.60;;;-2.00;99.90;;;;;;5030099;28;20046;-48
2021/01/09 03:50:53;;;;;;;1.83;0.70;;;-2.10;99.90;;;;;;5028929;28;20050;-48
2021/01/09 03:53:19;;;;;;;3.60;1.00;;;-2.10;99.90;;;;;;5024610;28;20049;-48
2021/01/09 03:55:45;;;;;;;0.82;0.70;;;-2.10;99.90;;;;;;5027166;28;20045;-48
2021/01/09 03:58:12;;;;;;;0.82;0.60;;;-2.00;99.90;;;;;;5016046;28;20049;-48
2021/01/09 04:00:38;;;;;;;1.33;0.60;;;-1.80;99.90;;;;;;5027026;28;20052;-48
2021/01/09 04:03:05;;;;;;;4.57;0.55;;;-1.80;99.90;;;;;;5029659;28;20045;-48
2021/01/09 04:05:36;;;;;;;3.80;0.70;;;-1.80;99.90;;;;;;5025288;28;20471;-48
2021/01/09 04:08:02;;;;;;;1.02;0.70;;;-1.90;99.90;;;;;;5017188;28;20055;-48
2021/01/09 04:10:31;;;;;;;1.55;0.70;;;-2.00;99.90;;;;;;5031109;28;20525;-48
2021/01/09 04:12:57;;;;;;;0.77;0.60;;;-2.00;99.90;;;;;;5031492;28;20491;-48
2021/01/09 04:15:25;;;;;;;1.10;0.82;;;-2.00;99.90;;;;;;5030283;28;20049;-48
2021/01/09 04:17:51;;;;;;;1.13;0.60;;;-1.90;99.90;;;;;;5029164;28;20057;-48
2021/01/09 04:20:18;;;;;;;0.80;0.68;;;-1.90;99.90;;;;;;5030690;28;20383;-48
2021/01/09 04:22:44;;;;;;;0.80;0.80;;;-2.00;99.90;;;;;;5028347;28;20053;-48
2021/01/09 04:25:11;;;;;;;1.10;0.60;;;-2.00;99.90;;;;;;5029216;28;20056;-49
2021/01/09 04:27:38;;;;;;;1.02;0.50;;;-2.00;99.90;;;;;;5031222;28;20052;-48
2021/01/09 04:30:05;;;;;;;1.80;0.50;;;-1.90;99.90;;;;;;5028895;28;20049;-48
2021/01/09 04:32:32;;;;;;;0.80;0.52;;;-1.80;99.90;;;;;;5022716;28;20060;-48
2021/01/09 04:35:00;;;;;;;2.53;0.60;;;-1.80;99.90;;;;;;5026651;28;20053;-48
2021/01/09 04:37:27;;;;;;;2.00;0.60;;;-1.80;99.90;;;;;;5012025;28;20054;-51
2021/01/09 04:39:53;;;;;;;0.90;0.50;;;-1.80;99.90;;;;;;5027886;28;20049;-49
2021/01/09 04:42:20;;;;;;;0.80;0.60;;;-1.60;99.90;;;;;;5027932;28;20049;-48
2021/01/09 04:44:47;;;;;;;3.08;0.50;;;-1.50;99.90;;;;;;5021770;28;20057;-48
2021/01/09 04:47:15;;;;;;;2.47;0.60;;;-1.50;99.90;;;;;;5030271;28;20045;-49
2021/01/09 04:49:41;;;;;;;2.55;0.60;;;-1.50;99.90;;;;;;5029341;28;20049;-48
2021/01/09 04:52:10;;;;;;;2.50;0.80;;;-1.50;99.90;;;;;;5029381;28;20057;-48
2021/01/09 04:54:39;;;;;;;1.10;0.70;;;-1.50;99.90;;;;;;5024038;28;20060;-48
2021/01/09 04:57:05;;;;;;;0.95;0.70;;;-1.60;99.90;;;;;;5026240;28;20407;-48
2021/01/09 04:59:35;;;;;;;1.00;0.60;;;-1.70;99.90;;;;;;5015705;28;20060;-48
2021/01/09 05:02:04;;;;;;;0.98;0.60;;;-1.70;99.90;;;;;;5030925;28;20049;-50
2021/01/09 05:04:31;;;;;;;0.80;0.68;;;-1.70;99.90;;;;;;5028625;28;20470;-48
2021/01/09 05:06:57;;;;;;;1.83;0.63;;;-1.60;99.90;;;;;;5021144;28;20053;-48
2021/01/09 05:09:24;;;;;;;1.75;0.85;;;-1.60;99.90;;;;;;5028583;28;20463;-48
2021/01/09 05:11:56;;;;;;;3.42;2.10;;;-1.60;99.90;;;;;;5011190;28;20046;-49
2021/01/09 05:14:22;;;;;;;3.10;1.00;;;-1.60;99.90;;;;;;5025631;28;20087;-48
2021/01/09 05:16:49;;;;;;;1.40;0.70;;;-1.60;99.90;;;;;;5015657;28;20041;-49
2021/01/09 05:19:16;;;;;;;1.25;0.70;;;-1.60;99.90;;;;;;5031106;28;20118;-48
2021/01/09 05:21:43;;;;;;;2.05;0.75;;;-1.60;99.90;;;;;;5027048;28;20050;-48
2021/01/09 05:24:11;;;;;;;1.23;0.63;;;-1.50;99.90;;;;;;5016680;28;20054;-51
2021/01/09 05:26:39;;;;;;;1.92;0.70;;;-1.60;99.90;;;;;;5024586;28;20037;-49
2021/01/09 05:29:06;;;;;;;1.85;0.70;;;-1.70;99.90;;;;;;5028110;28;20068;-48
2021/01/09 05:31:37;;;;;;;1.40;0.60;;;-1.70;99.90;;;;;;5030306;28;20057;-50
2021/01/09 05:34:05;;;;;;;0.95;0.57;;;-1.70;99.90;;;;;;5017588;28;20049;-48
2021/01/09 05:36:32;;;;;;;1.60;0.70;;;-1.60;99.90;;;;;;5023160;28;20519;-49
2021/01/09 05:39:01;;;;;;;1.20;0.60;;;-1.50;99.90;;;;;;5032695;28;20076;-48
2021/01/09 05:41:28;;;;;;;3.08;0.70;;;-1.50;99.90;;;;;;5034015;28;20052;-48
2021/01/09 05:44:06;;;;;;;0.98;0.80;;;-1.50;99.90;;;;;;5029402;28;20049;-48
2021/01/09 05:46:35;;;;;;;1.00;0.60;;;-1.50;99.90;;;;;;5019908;28;20487;-48
2021/01/09 05:49:03;;;;;;;1.02;0.60;;;-1.40;99.90;;;;;;5031207;28;20490;-48
2021/01/09 05:51:35;;;;;;;1.77;1.10;;;-1.40;99.90;;;;;;5022745;28;20077;-48
2021/01/09 05:54:02;;;;;;;0.80;0.70;;;-1.40;99.90;;;;;;5023867;28;20452;-48
2021/01/09 05:56:29;;;;;;;1.38;0.80;;;-1.40;99.90;;;;;;5029016;28;20735;-51
2021/01/09 05:58:56;;;;;;;1.00;0.90;;;-1.40;99.90;;;;;;5031812;28;20056;-48
2021/01/09 06:01:28;;;;;;;1.05;0.70;;;-1.40;99.90;;;;;;5030284;28;20103;-48
2021/01/09 06:04:07;;;;;;;2.70;0.77;;;-1.10;99.90;;;;;;5032072;28;20095;-48
2021/01/09 06:06:46;;;;;;;0.90;0.70;;;-0.90;99.90;;;;;;5032333;28;20057;-48
2021/01/09 06:09:23;;;;;;;3.60;0.70;;;-0.80;99.90;;;;;;5024269;28;20037;-48
2021/01/09 06:11:54;;;;;;;3.55;0.68;;;-0.90;99.90;;;;;;5024488;28;20049;-48
2021/01/09 06:14:26;;;;;;;3.83;0.60;;;-0.80;99.90;;;;;;5028638;28;20053;-48
2021/01/09 06:16:55;;;;;;;2.80;0.95;;;-0.20;99.90;;;;;;5028414;28;20047;-48
2021/01/09 06:19:22;;;;;;;0.57;0.45;;;-0.50;99.90;;;;;;5025621;28;20060;-48
2021/01/09 06:21:50;;;;;;;3.28;0.60;;;-0.60;99.90;;;;;;5028380;28;20047;-48
2021/01/09 06:24:19;;;;;;;2.08;0.70;;;-0.80;99.90;;;;;;5028179;28;20049;-49
2021/01/09 06:26:46;;;;;;;2.42;0.90;;;-1.00;99.90;;;;;;5030327;28;20056;-49
2021/01/09 06:29:22;;;;;;;1.45;0.60;;;-1.10;99.90;;;;;;5015861;28;20058;-49
2021/01/09 06:32:04;;;;;;;0.85;0.60;;;-0.60;99.90;;;;;;5032696;28;20041;-49
2021/01/09 06:34:32;;;;;;;1.85;0.60;;;-0.40;99.90;;;;;;5033080;28;20073;-49
2021/01/09 06:37:01;;;;;;;1.40;0.80;;;-0.50;99.90;;;;;;5030571;28;20124;-49
2021/01/09 06:39:32;;;;;;;0.70;0.57;;;-0.50;99.90;;;;;;5031460;28;20475;-49
2021/01/09 06:42:01;;;;;;;2.30;0.70;;;-0.30;99.90;;;;;;5032087;28;20092;-50
2021/01/09 06:44:28;;;;;;;3.58;1.00;;;0.10;99.90;;;;;;5028435;28;20053;-49
2021/01/09 06:46:55;;;;;;;2.20;1.20;;;0.30;99.90;;;;;;5020218;28;20049;-49
2021/01/09 06:49:25;;;;;;;2.97;1.00;;;0.30;99.90;;;;;;5026031;28;20788;-49
2021/01/09 06:52:02;;;;;;;1.17;0.80;;;0.00;99.90;;;;;;5020565;28;20398;-49
2021/01/09 06:54:44;;;;;;;4.75;1.75;;;-0.10;99.90;;;;;;5018234;28;20049;-49
2021/01/09 06:57:19;;;;;;;2.35;1.40;;;-0.10;99.90;;;;;;5029331;28;20049;-49
2021/01/09 06:59:49;;;;;;;5.07;1.63;;;-0.30;99.90;;;;;;5015167;28;20050;-50
2021/01/09 07:02:21;;;;;;;2.15;1.50;;;-0.60;99.90;;;;;;5032097;28;20048;-48
2021/01/09 07:04:52;;;;;;;2.70;1.75;;;-0.70;99.90;;;;;;5029939;28;20065;-49
2021/01/09 07:07:35;;;;;;;1.50;1.30;;;-0.80;99.90;;;;;;5018501;28;20484;-49
2021/01/09 07:10:17;;;;;;;2.28;1.30;;;-0.80;99.90;;;;;;5030415;28;20057;-49
2021/01/09 07:12:54;;;;;;;4.45;2.88;;;-0.80;99.90;;;;;;5030975;28;20067;-49
2021/01/09 07:15:22;;;;;;;20.45;11.20;;;-0.60;99.90;;;;;;5021527;28;20049;-49
2021/01/09 07:17:59;;;;;;;8.43;3.28;;;-0.60;99.90;;;;;;5022906;28;20831;-49
2021/01/09 07:20:49;;;;;;;2.00;1.30;;;-0.50;99.90;;;;;;5016858;28;20053;-49
2021/01/09 07:23:17;;;;;;;4.25;1.77;;;-0.30;99.90;;;;;;5031321;28;20050;-49
2021/01/09 07:25:47;;;;;;;1.65;0.90;;;-0.30;99.90;;;;;;5030589;28;20037;-49
2021/01/09 07:28:16;;;;;;;2.10;1.40;;;0.10;99.90;;;;;;5021850;28;20046;-49
2021/01/09 07:30:44;;;;;;;3.45;1.10;;;0.40;99.90;;;;;;5022119;28;20426;-49
2021/01/09 07:33:13;;;;;;;3.15;1.42;;;0.30;99.90;;;;;;5031714;28;20135;-49
2021/01/09 07:35:44;;;;;;;2.90;1.30;;;0.30;99.90;;;;;;5028172;28;20425;-49
2021/01/09 07:38:13;;;;;;;3.33;1.42;;;0.20;99.90;;;;;;5013424;28;20137;-53
2021/01/09 07:40:45;;;;;;;3.03;1.40;;;0.30;99.90;;;;;;5032427;28;20046;-49
2021/01/09 07:43:38;;;;;;;1.85;1.00;;;0.50;99.90;;;;;;5031475;28;20398;-49
2021/01/09 07:46:27;;;;;;;1.90;1.10;;;0.70;99.90;;;;;;5026951;28;20045;-49
2021/01/09 07:48:59;;;;;;;1.10;1.00;;;0.70;99.90;;;;;;5028232;28;20069;-53
2021/01/09 07:51:46;;;;;;;0.70;0.60;;;1.00;99.90;;;;;;5028322;28;20061;-49
2021/01/09 07:54:36;;;;;;;2.20;0.57;;;1.40;99.90;;;;;;5030778;28;20053;-51
2021/01/09 07:57:18;;;;;;;2.35;2.20;;;1.80;99.90;;;;;;5028492;28;20049;-49
2021/01/09 07:59:54;;;;;;;9.18;5.68;;;1.70;99.90;;;;;;5011416;28;20064;-49
2021/01/09 08:02:27;;;;;;;3.50;2.70;;;1.20;99.90;;;;;;5031603;28;20247;-49
2021/01/09 08:05:29;;;;;;;4.97;2.05;;;1.00;99.90;;;;;;5030128;28;20091;-49
2021/01/09 08:07:57;;;;;;;3.92;1.80;;;1.30;99.90;;;;;;4989573;28;20046;-49
2021/01/09 08:10:30;;;;;;;7.03;4.90;;;1.30;99.90;;;;;;4988010;28;20054;-49
2021/01/09 08:13:04;;;;;;;6.72;3.40;;;1.20;99.90;;;;;;4989054;28;20065;-49
2021/01/09 08:15:33;;;;;;;6.40;2.92;;;1.10;99.90;;;;;;4986844;28;20652;-49
2021/01/09 08:18:06;;;;;;;5.03;2.00;;;1.00;99.90;;;;;;4988538;28;20070;-49
2021/01/09 08:20:33;;;;;;;1.60;1.45;;;1.00;99.90;;;;;;4988717;28;20047;-50
2021/01/09 08:23:05;;;;;;;4.15;2.72;;;1.00;99.90;;;;;;4988447;28;20484;-50
2021/01/09 08:25:42;;;;;;;3.17;2.28;;;1.00;99.90;;;;;;4979518;28;20524;-50
2021/01/09 08:28:09;;;;;;;4.05;1.45;;;1.10;99.90;;;;;;4989693;28;20050;-50
2021/01/09 08:30:39;;;;;;;3.83;1.10;;;1.30;99.90;;;;;;4988812;28;20050;-49
2021/01/09 08:33:06;;;;;;;1.85;1.25;;;1.40;99.90;;;;;;4977610;28;20436;-49
2021/01/09 08:35:35;;;;;;;2.75;1.40;;;1.50;99.90;;;;;;4983924;28;20045;-53
2021/01/09 08:38:03;;;;;;;1.52;0.52;;;1.50;99.90;;;;;;4989269;28;20411;-49
2021/01/09 08:40:33;;;;;;;1.10;0.70;;;1.90;99.90;;;;;;4988901;28;20042;-50
2021/01/09 08:43:02;;;;;;;0.98;0.70;;;2.10;99.90;;;;;;5013408;28;20125;-49
2021/01/09 08:45:45;;;;;;;1.48;0.85;;;2.10;99.90;;;;;;5030943;28;20478;-50
2021/01/09 08:48:22;;;;;;;0.90;0.60;;;2.00;99.90;;;;;;5029178;28;20135;-49
2021/01/09 08:51:11;;;;;;;0.80;0.60;;;2.00;99.90;;;;;;5014363;28;20041;-49
2021/01/09 08:53:51;;;;;;;0.82;0.70;;;2.00;99.90;;;;;;5028467;28;20045;-49
2021/01/09 08:56:22;;;;;;;1.27;0.82;;;2.00;99.90;;;;;;5028156;28;20060;-49
2021/01/09 08:58:49;;;;;;;1.23;0.82;;;1.90;99.90;;;;;;5018734;28;20046;-50
2021/01/09 09:01:24;;;;;;;3.40;1.90;;;1.90;99.90;;;;;;5024584;28;20406;-49
2021/01/09 09:03:55;;;;;;;6.53;2.97;;;2.00;99.90;;;;;;5019709;28;20077;-50
2021/01/09 09:06:22;;;;;;;4.30;1.95;;;2.00;99.90;;;;;;5027647;28;20080;-49
2021/01/09 09:08:51;;;;;;;1.20;0.90;;;2.00;99.90;;;;;;5029129;28;20147;-49
2021/01/09 09:11:23;;;;;;;0.60;0.60;;;2.10;99.90;;;;;;5020929;28;20050;-49
2021/01/09 09:14:09;;;;;;;0.60;0.50;;;2.20;99.90;;;;;;5020570;28;20045;-50
2021/01/09 09:16:38;;;;;;;0.60;0.50;;;2.30;99.90;;;;;;5029879;28;20068;-49
2021/01/09 09:19:11;;;;;;;1.02;0.50;;;2.30;99.90;;;;;;5026765;28;20557;-50
2021/01/09 09:21:42;;;;;;;1.48;0.50;;;2.40;99.90;;;;;;5012450;28;20054;-49
2021/01/09 09:24:10;;;;;;;1.45;0.50;;;2.50;99.90;;;;;;5028667;28;20046;-49
2021/01/09 09:26:37;;;;;;;0.50;0.50;;;2.60;99.90;;;;;;5025802;28;20041;-50
2021/01/09 09:29:04;;;;;;;0.57;0.35;;;2.70;99.90;;;;;;5017317;28;20759;-49
2021/01/09 09:31:41;;;;;;;0.50;0.40;;;2.80;99.90;;;;;;5024324;28;20483;-50
2021/01/09 09:34:15;;;;;;;0.90;0.73;;;2.80;99.90;;;;;;5028921;28;20135;-49
2021/01/09 09:36:50;;;;;;;2.85;0.93;;;2.80;99.90;;;;;;5025160;28;20061;-50
2021/01/09 09:39:21;;;;;;;0.40;0.40;;;2.80;99.90;;;;;;5021533;28;20049;-50
2021/01/09 09:41:55;;;;;;;1.90;0.70;;;2.70;99.90;;;;;;5022730;28;20046;-50
2021/01/09 09:44:33;;;;;;;3.67;0.60;;;2.70;99.90;;;;;;5021870;28;20060;-50
2021/01/09 09:47:02;;;;;;;4.72;0.68;;;2.60;99.90;;;;;;5028308;28;20041;-51
2021/01/09 09:49:30;;;;;;;3.10;0.70;;;2.60;99.90;;;;;;5029930;28;20466;-50
2021/01/09 09:51:57;;;;;;;2.10;0.95;;;2.60;99.90;;;;;;5028903;28;20057;-50
2021/01/09 09:54:29;;;;;;;3.00;1.17;;;2.60;99.90;;;;;;5025221;28;20160;-50
2021/01/09 09:56:56;;;;;;;1.13;0.77;;;2.50;99.90;;;;;;5021198;28;20072;-53
2021/01/09 09:59:28;;;;;;;0.70;0.70;;;2.60;99.90;;;;;;5016406;28;20500;-50
2021/01/09 10:01:59;;;;;;;2.70;0.90;;;2.90;99.90;;;;;;5025343;28;20049;-50
2021/01/09 10:04:28;;;;;;;1.08;0.80;;;2.80;99.90;;;;;;5012016;28;20097;-50
2021/01/09 10:06:55;;;;;;;1.05;0.50;;;2.80;99.90;;;;;;5028854;28;20406;-49
2021/01/09 10:09:23;;;;;;;1.52;0.50;;;2.80;99.90;;;;;;5028423;28;20053;-50
2021/01/09 10:11:51;;;;;;;1.02;0.70;;;2.80;99.90;;;;;;5018599;28;20437;-49
2021/01/09 10:14:20;;;;;;;0.90;0.60;;;2.90;99.90;;;;;;5022515;28;20088;-49
2021/01/09 10:16:47;;;;;;;2.05;0.80;;;2.80;99.90;;;;;;5029567;28;20099;-50
2021/01/09 10:19:16;;;;;;;1.85;0.60;;;2.80;99.90;;;;;;5028403;28;20797;-49
2021/01/09 10:21:43;;;;;;;0.90;0.60;;;2.80;99.90;;;;;;5013243;28;20491;-52
2021/01/09 10:24:10;;;;;;;1.13;0.60;;;2.80;99.90;;;;;;5031600;28;20042;-50
2021/01/09 10:26:38;;;;;;;3.15;0.77;;;2.90;99.90;;;;;;5030908;28;20045;-50
2021/01/09 10:29:05;;;;;;;0.60;0.40;;;2.80;99.90;;;;;;5032960;28;20050;-50
2021/01/09 10:31:39;;;;;;;1.30;0.90;;;2.80;99.90;;;;;;5031441;28;20057;-50
2021/01/09 10:34:07;;;;;;;4.45;1.23;;;2.90;99.90;;;;;;5031771;28;20414;-49
2021/01/09 10:36:37;;;;;;;2.75;1.15;;;2.90;99.90;;;;;;5030167;28;20809;-49
2021/01/09 10:39:05;;;;;;;12.32;4.60;;;2.90;99.90;;;;;;5019002;28;20046;-49
2021/01/09 10:41:31;;;;;;;2.08;0.90;;;2.90;99.90;;;;;;5034071;28;20049;-50
2021/01/09 10:44:02;;;;;;;2.80;1.00;;;3.00;99.90;;;;;;5029837;28;20048;-49
2021/01/09 10:46:29;;;;;;;1.15;0.60;;;2.90;99.90;;;;;;5029204;28;20057;-49
2021/01/09 10:48:56;;;;;;;3.65;0.60;;;2.90;99.90;;;;;;5029392;28;20085;-49
2021/01/09 10:51:26;;;;;;;0.60;0.40;;;3.00;99.90;;;;;;5016449;28;20080;-50
2021/01/09 10:53:52;;;;;;;3.17;0.55;;;3.00;99.90;;;;;;5031235;28;20140;-50
2021/01/09 10:56:19;;;;;;;2.15;1.45;;;3.00;99.90;;;;;;5036051;28;20091;-51
2021/01/09 10:58:46;;;;;;;0.82;0.70;;;3.00;99.90;;;;;;5029520;28;20050;-49
2021/01/09 11:01:12;;;;;;;0.82;0.70;;;3.00;99.90;;;;;;5031713;28;20057;-50
2021/01/09 11:03:42;;;;;;;1.45;1.05;;;3.00;99.90;;;;;;5033275;28;20045;-49
2021/01/09 11:06:09;;;;;;;1.33;0.80;;;3.00;99.90;;;;;;5032897;28;20089;-51
2021/01/09 11:08:36;;;;;;;2.75;0.52;;;3.00;99.90;;;;;;5029337;28;20045;-50
2021/01/09 11:11:03;;;;;;;1.00;0.60;;;3.00;99.90;;;;;;5030538;28;20176;-49
2021/01/09 11:13:29;;;;;;;0.95;0.70;;;3.00;99.90;;;;;;5034494;28;20080;-49
2021/01/09 11:15:57;;;;;;;2.63;0.60;;;3.00;99.90;;;;;;5030573;28;20061;-49
2021/01/09 11:18:23;;;;;;;1.00;0.60;;;3.00;99.90;;;;;;5022485;28;20052;-53
2021/01/09 11:20:50;;;;;;;0.70;0.60;;;3.00;99.90;;;;;;5038020;28;20060;-49
2021/01/09 11:23:20;;;;;;;1.75;0.98;;;3.10;99.90;;;;;;5035803;28;20120;-50
2021/01/09 11:25:48;;;;;;;1.63;0.55;;;3.00;99.90;;;;;;5030978;28;20041;-52
2021/01/09 11:28:15;;;;;;;0.70;0.70;;;3.00;99.90;;;;;;5031688;28;20049;-49
2021/01/09 11:30:45;;;;;;;1.00;0.60;;;3.10;99.90;;;;;;5036544;28;20518;-50
2021/01/09 11:33:12;;;;;;;0.70;0.50;;;3.10;99.90;;;;;;5025345;28;20387;-50
2021/01/09 11:35:39;;;;;;;2.25;0.50;;;3.10;99.90;;;;;;5030969;28;20045;-49
2021/01/09 11:38:21;;;;;;;0.85;0.50;;;3.10;99.90;;;;;;5029541;28;20053;-49
2021/01/09 11:40:50;;;;;;;2.03;0.70;;;3.10;99.90;;;;;;5028606;28;20064;-50
2021/01/09 11:43:17;;;;;;;1.77;0.80;;;3.20;99.90;;;;;;5030932;28;20061;-50
2021/01/09 11:45:44;;;;;;;1.35;0.90;;;3.20;99.90;;;;;;5029187;28;20045;-50
2021/01/09 11:48:11;;;;;;;3.20;0.90;;;3.20;99.90;;;;;;5040356;28;20407;-50
2021/01/09 11:50:38;;;;;;;2.05;0.70;;;3.20;99.90;;;;;;5026279;28;20049;-49
2021/01/09 11:53:18;;;;;;;1.08;0.50;;;3.20;99.90;;;;;;5030043;28;20056;-50
2021/01/09 11:55:46;;;;;;;0.90;0.60;;;3.20;99.90;;;;;;5028615;28;20045;-49
2021/01/09 11:58:12;;;;;;;1.95;0.70;;;3.20;99.90;;;;;;5028988;28;20057;-49
2021/01/09 12:00:39;;;;;;;33.05;10.98;;;3.20;99.90;;;;;;5030928;28;20053;-49
2021/01/09 12:03:05;;;;;;;2.05;0.90;;;3.20;99.90;;;;;;5030289;28;20065;-50
2021/01/09 12:05:33;;;;;;;2.72;0.80;;;3.20;99.90;;;;;;5024120;28;20141;-51
2021/01/09 12:08:01;;;;;;;2.33;1.27;;;3.20;99.90;;;;;;5029242;28;20048;-53
2021/01/09 12:10:27;;;;;;;3.70;1.30;;;3.20;99.90;;;;;;5030710;28;20053;-50
2021/01/09 12:13:00;;;;;;;11.82;6.45;;;3.20;99.90;;;;;;5029651;28;20107;-51
2021/01/09 12:15:27;;;;;;;3.15;1.17;;;3.30;99.90;;;;;;5029766;28;20053;-50
2021/01/09 12:17:53;;;;;;;1.02;0.68;;;3.20;99.90;;;;;;5030856;28;20414;-54
2021/01/09 12:20:20;;;;;;;5.28;2.78;;;3.20;99.90;;;;;;5029535;28;20051;-53
2021/01/09 12:22:47;;;;;;;2.40;1.20;;;3.20;99.90;;;;;;5028684;28;20045;-53
2021/01/09 12:25:14;;;;;;;3.25;1.00;;;3.20;99.90;;;;;;5027613;28;20045;-51
2021/01/09 12:27:41;;;;;;;4.03;0.68;;;3.30;99.90;;;;;;5028721;28;20050;-49
2021/01/09 12:30:08;;;;;;;3.83;1.00;;;3.20;99.90;;;;;;5031053;28;20050;-53
2021/01/09 12:32:37;;;;;;;4.32;1.10;;;3.20;99.90;;;;;;5021874;28;20095;-52
2021/01/09 12:35:06;;;;;;;1.40;0.90;;;3.30;99.90;;;;;;5030800;28;20132;-51
2021/01/09 12:37:33;;;;;;;1.77;0.80;;;3.30;99.90;;;;;;5028170;28;20050;-49
2021/01/09 12:40:01;;;;;;;1.90;0.70;;;3.30;99.90;;;;;;5020316;28;20057;-53
2021/01/09 12:42:28;;;;;;;2.00;0.90;;;3.30;99.90;;;;;;5025958;28;20422;-50
2021/01/09 12:44:55;;;;;;;3.90;1.45;;;3.30;99.90;;;;;;5012945;28;20100;-50
2021/01/09 12:47:21;;;;;;;0.90;0.70;;;3.30;99.90;;;;;;5022888;28;20038;-52
2021/01/09 12:49:48;;;;;;;2.38;0.80;;;3.30;99.90;;;;;;5019827;28;20045;-49
2021/01/09 12:52:15;;;;;;;1.00;0.90;;;3.30;99.90;;;;;;5030044;28;20049;-50
2021/01/09 12:54:41;;;;;;;1.45;0.73;;;3.20;99.90;;;;;;5026785;28;20056;-50
2021/01/09 12:57:08;;;;;;;2.38;0.82;;;3.30;99.90;;;;;;5013667;28;20410;-49
2021/01/09 12:59:34;;;;;;;0.70;0.65;;;3.20;99.90;;;;;;5028103;28;20049;-49
2021/01/09 13:02:01;;;;;;;9.57;4.00;;;3.20;99.90;;;;;;5031484;28;20037;-49